Time;durP1;ratioP1;P1;durP2;ratioP2;P2;SDS_P1;SDS_P2;PMS_P1;PMS_P2;Temp;Humidity;BMP_temperature;BMP_pressure;BME280_temperature;BME280_humidity;BME280_pressure;Samples;Min_cycle;Max_cycle;Signal;HPM_P1;HPM_P2
2021/10/05 00:00:19;;;;;;;2.90;1.58;;;23.30;57.30;;;;;;6316485;28;20135;-72
2021/10/05 00:03:20;;;;;;;2.28;1.52;;;23.30;57.30;;;;;;6301302;28;20032;-72
2021/10/05 00:06:20;;;;;;;2.88;1.80;;;23.30;57.30;;;;;;6291619;28;20024;-72
2021/10/05 00:09:21;;;;;;;4.07;1.83;;;23.30;57.30;;;;;;6313531;28;20048;-72
2021/10/05 00:12:22;;;;;;;2.38;1.42;;;23.30;57.30;;;;;;6310334;28;20021;-72
2021/10/05 00:15:23;;;;;;;2.95;1.98;;;23.30;57.30;;;;;;6291212;28;20025;-71
2021/10/05 00:18:24;;;;;;;3.40;1.90;;;23.30;57.30;;;;;;6304521;28;20399;-72
2021/10/05 00:21:24;;;;;;;1.85;1.50;;;23.30;57.30;;;;;;6316000;28;20334;-72
2021/10/05 00:24:25;;;;;;;2.72;1.60;;;23.30;57.30;;;;;;6295031;28;20476;-72
2021/10/05 00:27:25;;;;;;;2.38;1.50;;;23.30;57.30;;;;;;6314561;28;20039;-72
2021/10/05 00:30:26;;;;;;;2.83;1.70;;;23.30;57.20;;;;;;6316132;28;20029;-72
2021/10/05 00:33:27;;;;;;;2.50;1.30;;;23.30;57.30;;;;;;6295539;28;20035;-72
2021/10/05 00:36:27;;;;;;;2.60;1.58;;;23.30;57.60;;;;;;6325069;28;20139;-72
2021/10/05 00:39:28;;;;;;;2.10;1.40;;;23.30;57.30;;;;;;6291497;28;20068;-72
2021/10/05 00:42:29;;;;;;;2.42;1.30;;;23.30;57.30;;;;;;6301601;28;20360;-72
2021/10/05 00:45:29;;;;;;;2.42;1.27;;;23.30;57.30;;;;;;6315752;28;20024;-72
2021/10/05 00:48:30;;;;;;;3.30;1.70;;;23.30;57.30;;;;;;6297243;28;20029;-72
2021/10/05 00:51:31;;;;;;;1.67;1.25;;;23.30;57.30;;;;;;6292031;28;20029;-72
2021/10/05 00:54:34;;;;;;;3.35;1.73;;;23.30;57.30;;;;;;6316265;28;20032;-72
2021/10/05 00:57:35;;;;;;;3.88;1.83;;;23.30;57.40;;;;;;6306246;28;20696;-72
2021/10/05 01:00:37;;;;;;;2.58;1.40;;;23.30;57.40;;;;;;6293892;28;20035;-72
2021/10/05 01:03:39;;;;;;;2.45;1.52;;;23.30;57.40;;;;;;6297774;28;20044;-72
2021/10/05 01:06:47;;;;;;;2.15;1.52;;;23.30;57.40;;;;;;6291956;28;20036;-72
2021/10/05 01:09:48;;;;;;;2.22;1.20;;;23.30;57.40;;;;;;6319684;28;20048;-73
2021/10/05 01:12:51;;;;;;;2.60;1.52;;;23.30;57.40;;;;;;6313537;28;20548;-72
2021/10/05 01:15:51;;;;;;;2.30;1.35;;;23.30;57.40;;;;;;6297185;28;20099;-72
2021/10/05 01:18:52;;;;;;;2.42;1.27;;;23.30;57.40;;;;;;6305632;28;20101;-72
2021/10/05 01:21:53;;;;;;;2.47;1.30;;;23.30;57.40;;;;;;6320400;28;20031;-72
2021/10/05 01:24:53;;;;;;;1.65;1.10;;;23.30;57.40;;;;;;6299243;28;20508;-72
2021/10/05 01:27:54;;;;;;;2.10;1.50;;;23.30;57.40;;;;;;6302869;28;20028;-72
2021/10/05 01:30:56;;;;;;;2.75;1.58;;;23.30;57.40;;;;;;6294853;28;20079;-72
2021/10/05 01:33:58;;;;;;;1.70;1.20;;;23.30;57.40;;;;;;6319601;28;20490;-72
2021/10/05 01:36:59;;;;;;;2.88;1.45;;;23.30;57.40;;;;;;6312243;28;20044;-72
2021/10/05 01:40:00;;;;;;;1.50;1.00;;;23.30;57.40;;;;;;6295121;28;20450;-72
2021/10/05 01:43:00;;;;;;;2.78;1.27;;;23.30;57.40;;;;;;6309285;28;20028;-72
2021/10/05 01:46:01;;;;;;;2.13;1.30;;;23.30;58.10;;;;;;6319416;28;20031;-72
2021/10/05 01:49:01;;;;;;;2.22;1.40;;;23.30;57.40;;;;;;6296519;28;20047;-72
2021/10/05 01:52:04;;;;;;;2.10;1.30;;;23.30;57.40;;;;;;6300054;28;20020;-73
2021/10/05 01:55:06;;;;;;;1.50;0.90;;;23.30;57.40;;;;;;6294571;28;20403;-71
2021/10/05 01:58:07;;;;;;;1.70;1.05;;;23.30;57.40;;;;;;6307795;28;20063;-72
2021/10/05 02:01:07;;;;;;;1.58;1.08;;;23.30;57.40;;;;;;6319455;28;20031;-73
2021/10/05 02:04:09;;;;;;;2.53;1.40;;;23.30;57.40;;;;;;6297752;28;20027;-73
2021/10/05 02:07:11;;;;;;;2.13;1.27;;;23.30;57.40;;;;;;6295568;28;20025;-72
2021/10/05 02:10:12;;;;;;;2.30;1.10;;;23.30;57.40;;;;;;6317688;28;20044;-72
2021/10/05 02:13:13;;;;;;;1.83;1.08;;;23.30;57.40;;;;;;6309063;28;20077;-72
2021/10/05 02:16:13;;;;;;;1.40;1.10;;;23.30;57.40;;;;;;6293548;28;20076;-72
2021/10/05 02:19:14;;;;;;;1.88;1.25;;;23.30;57.40;;;;;;6310444;28;20402;-72
2021/10/05 02:22:14;;;;;;;1.85;1.10;;;23.30;57.40;;;;;;6318750;28;20035;-72
2021/10/05 02:25:15;;;;;;;3.20;0.90;;;23.30;57.40;;;;;;6298900;28;20532;-72
2021/10/05 02:28:16;;;;;;;1.88;1.10;;;23.20;57.30;;;;;;6298138;28;20028;-72
2021/10/05 02:31:16;;;;;;;1.55;1.10;;;23.20;58.00;;;;;;6295430;28;20496;-71
2021/10/05 02:34:17;;;;;;;2.15;1.23;;;23.20;57.30;;;;;;6314840;28;20099;-71
2021/10/05 02:37:17;;;;;;;2.20;0.90;;;23.30;57.40;;;;;;6299536;28;20059;-72
2021/10/05 02:40:18;;;;;;;2.70;1.38;;;23.20;57.30;;;;;;6318731;28;20090;-71
2021/10/05 02:43:18;;;;;;;1.85;1.10;;;23.20;57.30;;;;;;6312523;28;20042;-72
2021/10/05 02:46:19;;;;;;;1.65;1.10;;;23.20;57.30;;;;;;6317845;28;20070;-72
2021/10/05 02:49:19;;;;;;;1.80;0.90;;;23.20;57.30;;;;;;6292765;28;20035;-72
2021/10/05 02:52:22;;;;;;;1.35;1.10;;;23.20;57.30;;;;;;6301565;28;20024;-72
2021/10/05 02:55:22;;;;;;;1.88;1.00;;;23.20;57.30;;;;;;6317751;28;20411;-72
2021/10/05 02:58:23;;;;;;;1.45;1.10;;;23.20;57.30;;;;;;6300152;28;20035;-72
2021/10/05 03:01:23;;;;;;;2.63;1.25;;;23.20;57.30;;;;;;6292795;28;20078;-72
2021/10/05 03:04:25;;;;;;;2.20;0.93;;;23.20;57.30;;;;;;6316949;28;20077;-72
2021/10/05 03:07:25;;;;;;;1.33;0.90;;;23.20;57.30;;;;;;6312678;28;20450;-72
2021/10/05 03:10:26;;;;;;;1.25;1.02;;;23.20;57.40;;;;;;6292541;28;20083;-72
2021/10/05 03:13:33;;;;;;;1.50;1.00;;;23.20;57.30;;;;;;6304845;28;20483;-72
2021/10/05 03:16:34;;;;;;;0.82;0.70;;;23.20;57.40;;;;;;6300967;28;20100;-72
2021/10/05 03:19:34;;;;;;;0.77;0.70;;;23.20;57.40;;;;;;6307656;28;20017;-72
2021/10/05 03:22:35;;;;;;;0.88;0.73;;;23.20;57.40;;;;;;6296111;28;20020;-71
2021/10/05 03:25:36;;;;;;;1.17;0.90;;;23.20;57.30;;;;;;6308453;28;20017;-72
2021/10/05 03:28:37;;;;;;;1.25;0.80;;;23.20;57.40;;;;;;6314443;28;20591;-72
2021/10/05 03:31:37;;;;;;;0.98;0.80;;;23.20;57.40;;;;;;6310753;28;20024;-71
2021/10/05 03:34:38;;;;;;;1.27;0.88;;;23.20;57.40;;;;;;6292114;28;20023;-72
2021/10/05 03:37:39;;;;;;;1.60;0.88;;;23.20;57.40;;;;;;6304345;28;20055;-72
2021/10/05 03:40:40;;;;;;;0.85;0.80;;;23.20;57.40;;;;;;6310763;28;20035;-72
2021/10/05 03:43:40;;;;;;;1.27;1.10;;;23.20;57.40;;;;;;6312368;28;20028;-72
2021/10/05 03:46:41;;;;;;;0.70;0.70;;;23.20;57.40;;;;;;6313498;28;20487;-72
2021/10/05 03:49:41;;;;;;;1.70;1.02;;;23.20;57.40;;;;;;6291866;28;20387;-72
2021/10/05 03:52:42;;;;;;;1.52;0.95;;;23.20;57.40;;;;;;6297620;28;20017;-72
2021/10/05 03:55:47;;;;;;;0.95;0.80;;;23.20;57.30;;;;;;6291382;28;20542;-72
2021/10/05 03:58:47;;;;;;;;;;;23.20;57.40;;;;;;6311192;28;20636;-72
2021/10/05 04:01:48;;;;;;;1.60;1.00;;;23.20;57.40;;;;;;6314639;28;19904;-72
2021/10/05 04:04:48;;;;;;;1.65;0.85;;;23.20;57.40;;;;;;6291227;28;20097;-72
2021/10/05 04:07:49;;;;;;;1.27;0.82;;;23.20;57.40;;;;;;6297350;28;20085;-72
2021/10/05 04:10:50;;;;;;;1.00;0.70;;;23.20;57.40;;;;;;6316043;28;20103;-73
2021/10/05 04:13:50;;;;;;;0.85;0.80;;;23.20;57.40;;;;;;6300816;28;20024;-72
2021/10/05 04:16:51;;;;;;;1.95;0.95;;;23.20;57.40;;;;;;6315817;28;20056;-72
2021/10/05 04:19:51;;;;;;;0.98;0.70;;;23.20;57.40;;;;;;6291614;28;20024;-72
2021/10/05 04:22:52;;;;;;;1.52;0.88;;;23.20;57.40;;;;;;6298993;28;20020;-71
2021/10/05 04:25:53;;;;;;;0.70;0.70;;;23.20;57.40;;;;;;6303716;28;20023;-71
2021/10/05 04:28:53;;;;;;;1.05;0.70;;;23.20;57.40;;;;;;6290911;28;20032;-72
2021/10/05 04:31:54;;;;;;;1.27;0.70;;;23.20;57.40;;;;;;6296894;28;20398;-73
2021/10/05 04:34:54;;;;;;;0.65;0.65;;;23.20;57.40;;;;;;6307176;28;20024;-72
2021/10/05 04:37:55;;;;;;;1.35;0.95;;;23.20;57.40;;;;;;6306290;28;20099;-72
2021/10/05 04:40:56;;;;;;;1.20;0.80;;;23.20;57.40;;;;;;6315946;28;20128;-72
2021/10/05 04:43:56;;;;;;;0.93;0.73;;;23.20;57.40;;;;;;6297774;28;20024;-72
2021/10/05 04:46:57;;;;;;;1.00;0.70;;;23.20;57.40;;;;;;6301844;28;20073;-72
2021/10/05 04:49:57;;;;;;;1.20;0.80;;;23.20;57.40;;;;;;6317074;28;20070;-72
2021/10/05 04:52:58;;;;;;;1.10;0.70;;;23.20;57.40;;;;;;6308857;28;20063;-72
2021/10/05 04:55:58;;;;;;;1.33;0.80;;;23.20;57.40;;;;;;6297365;28;20336;-71
2021/10/05 04:58:59;;;;;;;8.77;0.80;;;23.20;57.50;;;;;;6313329;28;20207;-74
2021/10/05 05:02:00;;;;;;;6.75;1.02;;;23.30;57.70;;;;;;6302260;28;20024;-73
2021/10/05 05:05:00;;;;;;;6.43;1.05;;;23.30;57.50;;;;;;6305564;28;20066;-73
2021/10/05 05:08:02;;;;;;;3.40;0.90;;;23.30;57.30;;;;;;6317227;28;20044;-74
2021/10/05 05:11:03;;;;;;;3.90;0.90;;;23.30;57.30;;;;;;6313451;28;20052;-73
2021/10/05 05:14:11;;;;;;;2.33;0.77;;;23.30;57.40;;;;;;6299330;28;20498;-73
2021/10/05 05:17:12;;;;;;;7.85;1.08;;;23.20;57.30;;;;;;6307406;28;20103;-73
2021/10/05 05:20:12;;;;;;;2.28;0.73;;;23.30;57.40;;;;;;6293345;28;20056;-73
2021/10/05 05:23:13;;;;;;;1.08;0.60;;;23.20;57.40;;;;;;6308012;28;20527;-73
2021/10/05 05:26:14;;;;;;;2.05;0.80;;;23.20;57.40;;;;;;6307702;28;20024;-73
2021/10/05 05:29:14;;;;;;;2.95;0.80;;;23.20;57.40;;;;;;6300546;28;20044;-73
2021/10/05 05:32:15;;;;;;;4.32;0.82;;;23.30;57.50;;;;;;6294575;28;20025;-73
2021/10/05 05:35:15;;;;;;;4.35;0.80;;;23.20;57.40;;;;;;6294084;28;20392;-73
2021/10/05 05:38:16;;;;;;;1.02;0.68;;;23.30;57.50;;;;;;6294074;28;20021;-73
2021/10/05 05:41:17;;;;;;;1.05;0.73;;;23.30;57.50;;;;;;6293919;28;20387;-73
2021/10/05 05:44:17;;;;;;;2.35;0.70;;;23.30;57.50;;;;;;6312160;28;20078;-73
2021/10/05 05:47:18;;;;;;;2.50;0.73;;;23.30;57.50;;;;;;6293457;28;20035;-72
2021/10/05 05:50:19;;;;;;;1.02;0.70;;;23.30;57.50;;;;;;6293779;28;20078;-73
2021/10/05 05:53:19;;;;;;;1.33;0.60;;;23.30;57.50;;;;;;6293016;28;20393;-73
2021/10/05 05:56:20;;;;;;;1.50;0.80;;;23.30;57.50;;;;;;6293679;28;20032;-73
2021/10/05 05:59:20;;;;;;;2.72;0.70;;;23.30;57.40;;;;;;6312605;28;20108;-73
2021/10/05 06:02:21;;;;;;;1.35;0.80;;;23.30;57.40;;;;;;6305742;28;20027;-73
2021/10/05 06:05:21;;;;;;;1.90;0.80;;;23.30;57.40;;;;;;6302162;28;20032;-73
2021/10/05 06:08:22;;;;;;;0.70;0.60;;;23.30;57.40;;;;;;6300316;28;20042;-74
2021/10/05 06:11:23;;;;;;;1.67;0.68;;;23.30;57.30;;;;;;6295757;28;20048;-73
2021/10/05 06:14:28;;;;;;;1.48;0.63;;;23.30;57.40;;;;;;6295589;28;20027;-74
2021/10/05 06:17:28;;;;;;;1.40;0.60;;;23.30;57.40;;;;;;6302659;28;20440;-72
2021/10/05 06:20:29;;;;;;;5.78;0.77;;;23.30;57.80;;;;;;6303740;28;20043;-72
2021/10/05 06:23:30;;;;;;;3.25;0.40;;;23.50;57.60;;;;;;6309272;28;20483;-71
2021/10/05 06:26:30;;;;;;;11.82;0.75;;;23.50;57.50;;;;;;6307688;28;20027;-74
2021/10/05 06:29:31;;;;;;;4.10;0.55;;;23.60;57.50;;;;;;6306411;28;20574;-72
2021/10/05 06:32:32;;;;;;;1.52;0.80;;;23.50;57.40;;;;;;6308213;28;20336;-73
2021/10/05 06:35:33;;;;;;;4.03;0.75;;;23.50;57.60;;;;;;6303281;28;20101;-73
2021/10/05 06:38:35;;;;;;;3.70;0.98;;;23.60;58.00;;;;;;6316196;28;20451;-72
2021/10/05 06:41:35;;;;;;;4.65;1.30;;;23.70;58.00;;;;;;6313580;28;20423;-73
2021/10/05 06:44:36;;;;;;;8.85;1.38;;;23.70;57.90;;;;;;6305924;28;20027;-72
2021/10/05 06:47:36;;;;;;;19.55;4.25;;;23.80;57.70;;;;;;6310890;28;20028;-72
2021/10/05 06:50:37;;;;;;;42.78;6.53;;;23.80;57.60;;;;;;6305906;28;20072;-72
2021/10/05 06:53:38;;;;;;;30.02;5.57;;;23.90;57.40;;;;;;6314377;28;20030;-71
2021/10/05 06:56:38;;;;;;;28.30;4.60;;;23.90;57.30;;;;;;6313616;28;20488;-72
2021/10/05 06:59:39;;;;;;;23.30;4.43;;;23.90;57.30;;;;;;6312032;28;20031;-72
2021/10/05 07:02:47;;;;;;;22.25;4.85;;;23.90;57.30;;;;;;6312344;28;20360;-70
2021/10/05 07:05:48;;;;;;;27.90;6.05;;;23.90;57.40;;;;;;6337950;28;20565;-72
2021/10/05 07:08:49;;;;;;;28.23;4.93;;;24.00;57.30;;;;;;6311108;28;20056;-70
2021/10/05 07:11:49;;;;;;;33.20;6.10;;;24.10;57.50;;;;;;6315928;28;20035;-71
2021/10/05 07:14:50;;;;;;;26.15;5.53;;;24.10;57.20;;;;;;6310274;28;20024;-71
2021/10/05 07:17:53;;;;;;;33.50;6.25;;;24.20;57.20;;;;;;6306670;28;20036;-72
2021/10/05 07:20:53;;;;;;;28.63;5.28;;;24.20;57.00;;;;;;6294072;28;20032;-73
2021/10/05 07:23:54;;;;;;;28.05;6.38;;;24.30;57.10;;;;;;6298318;28;20128;-73
2021/10/05 07:26:54;;;;;;;38.05;6.13;;;24.30;57.00;;;;;;6301990;28;20052;-72
2021/10/05 07:29:55;;;;;;;30.45;5.75;;;24.30;57.00;;;;;;6319581;28;20024;-73
2021/10/05 07:33:01;;;;;;;23.27;5.95;;;24.30;57.10;;;;;;6316687;28;20051;-72
2021/10/05 07:36:02;;;;;;;20.27;5.03;;;24.10;57.40;;;;;;6316693;28;20032;-73
2021/10/05 07:39:03;;;;;;;15.63;4.55;;;24.10;57.30;;;;;;6294804;28;20048;-72
2021/10/05 07:42:05;;;;;;;25.02;4.82;;;24.00;57.50;;;;;;6301707;28;20020;-73
2021/10/05 07:45:06;;;;;;;19.52;4.47;;;24.00;57.60;;;;;;6319374;28;20540;-74
2021/10/05 07:48:07;;;;;;;11.27;3.65;;;24.00;57.50;;;;;;6316223;28;20032;-72
2021/10/05 07:51:07;;;;;;;19.00;4.13;;;24.00;57.50;;;;;;6318221;28;20032;-72
2021/10/05 07:54:08;;;;;;;22.25;4.15;;;24.00;57.50;;;;;;6317790;28;20035;-72
2021/10/05 07:57:08;;;;;;;10.82;3.42;;;23.90;57.50;;;;;;6301327;28;20708;-73
2021/10/05 08:00:10;;;;;;;11.32;3.42;;;23.90;57.50;;;;;;6305902;28;20027;-73
2021/10/05 08:03:11;;;;;;;11.88;3.65;;;24.00;57.50;;;;;;6305882;28;20033;-72
2021/10/05 08:06:11;;;;;;;10.60;3.42;;;23.90;57.40;;;;;;6312554;28;20034;-73
2021/10/05 08:09:14;;;;;;;12.55;3.63;;;23.90;57.40;;;;;;6327124;28;20173;-72
2021/10/05 08:12:15;;;;;;;10.23;3.30;;;24.00;57.40;;;;;;6312881;28;20027;-72
2021/10/05 08:15:16;;;;;;;11.95;3.15;;;24.00;57.40;;;;;;6313127;28;20024;-73
2021/10/05 08:18:16;;;;;;;6.72;2.70;;;24.00;57.30;;;;;;6296507;28;20024;-73
2021/10/05 08:21:18;;;;;;;11.75;3.33;;;23.90;57.30;;;;;;6293804;28;20052;-72
2021/10/05 08:24:20;;;;;;;10.77;3.45;;;24.00;57.30;;;;;;6309765;28;20744;-73
2021/10/05 08:27:20;;;;;;;10.98;2.88;;;23.90;57.30;;;;;;6315807;28;20024;-73
2021/10/05 08:30:21;;;;;;;7.13;3.00;;;23.90;57.30;;;;;;6315756;28;20388;-73
2021/10/05 08:33:22;;;;;;;6.85;2.50;;;23.90;57.40;;;;;;6317798;28;20027;-72
2021/10/05 08:36:22;;;;;;;7.68;2.20;;;23.90;57.40;;;;;;6310972;28;20071;-73
2021/10/05 08:39:23;;;;;;;11.32;2.60;;;23.90;57.30;;;;;;6319231;28;20020;-72
2021/10/05 08:42:24;;;;;;;8.43;2.13;;;24.00;57.30;;;;;;6317028;28;20028;-73
2021/10/05 08:45:24;;;;;;;24.17;4.40;;;24.00;57.20;;;;;;6307189;28;20028;-73
2021/10/05 08:48:33;;;;;;;16.98;4.00;;;24.20;57.00;;;;;;6311029;28;20024;-72
2021/10/05 08:51:34;;;;;;;15.63;3.63;;;24.30;56.90;;;;;;6295259;28;20040;-74
2021/10/05 08:54:37;;;;;;;13.55;3.72;;;24.30;57.50;;;;;;6303607;28;20027;-71
2021/10/05 08:57:38;;;;;;;9.90;3.80;;;24.20;56.80;;;;;;6303194;28;20028;-72
2021/10/05 09:00:38;;;;;;;25.52;5.07;;;24.20;56.90;;;;;;6315814;28;20115;-71
2021/10/05 09:03:48;;;;;;;12.43;3.80;;;24.30;56.80;;;;;;6310856;28;20024;-73
2021/10/05 09:06:55;;;;;;;18.20;3.60;;;24.40;56.80;;;;;;6331919;28;20015;-75
2021/10/05 09:09:59;;;;;;;13.20;3.33;;;24.30;56.70;;;;;;6319866;28;20052;-73
2021/10/05 09:13:00;;;;;;;18.35;3.65;;;24.30;57.10;;;;;;6306485;28;20028;-73
2021/10/05 09:16:01;;;;;;;14.73;3.70;;;24.20;57.30;;;;;;6301858;28;20074;-73
2021/10/05 09:19:05;;;;;;;14.73;3.58;;;24.20;57.60;;;;;;6314345;28;20028;-73
2021/10/05 09:22:15;;;;;;;11.77;3.55;;;24.10;57.60;;;;;;6318426;28;20534;-72
2021/10/05 09:25:29;;;;;;;12.52;2.97;;;24.10;57.40;;;;;;6300018;28;20020;-73
2021/10/05 09:28:30;;;;;;;14.05;3.13;;;24.20;57.30;;;;;;6299643;28;20035;-73
2021/10/05 09:31:30;;;;;;;12.52;2.92;;;24.10;57.70;;;;;;6298442;28;20240;-73
2021/10/05 09:34:49;;;;;;;9.30;2.80;;;24.10;57.70;;;;;;6297085;28;20028;-73
2021/10/05 09:37:50;;;;;;;13.43;2.63;;;24.10;57.60;;;;;;6301255;28;20036;-73
2021/10/05 09:41:05;;;;;;;8.02;2.60;;;24.10;57.50;;;;;;6297602;28;20047;-72
2021/10/05 09:44:07;;;;;;;15.63;2.80;;;24.20;57.30;;;;;;6298672;28;20052;-73
2021/10/05 09:47:08;;;;;;;6.07;2.40;;;24.20;57.00;;;;;;6297692;28;20424;-73
2021/10/05 09:50:18;;;;;;;8.95;2.60;;;24.30;57.00;;;;;;6297188;28;20035;-73
2021/10/05 09:53:19;;;;;;;13.23;3.58;;;24.40;57.30;;;;;;6297534;28;20052;-72
2021/10/05 09:56:22;;;;;;;8.95;3.00;;;24.40;57.20;;;;;;6296973;28;20024;-73
2021/10/05 09:59:22;;;;;;;12.40;3.53;;;24.40;57.00;;;;;;6321041;28;20096;-73
2021/10/05 10:02:23;;;;;;;14.05;3.42;;;24.40;57.10;;;;;;6308318;28;20016;-73
2021/10/05 10:05:25;;;;;;;7.22;3.15;;;24.30;57.00;;;;;;6321496;28;20035;-74
2021/10/05 10:08:29;;;;;;;10.02;2.70;;;24.30;57.40;;;;;;6316276;28;20104;-73
2021/10/05 10:11:30;;;;;;;15.07;3.10;;;24.20;57.30;;;;;;6308795;28;20063;-73
2021/10/05 10:14:31;;;;;;;11.15;2.88;;;24.30;57.40;;;;;;6312008;28;20021;-73
2021/10/05 10:17:34;;;;;;;17.15;3.17;;;24.30;57.40;;;;;;6302468;28;20025;-73
2021/10/05 10:20:38;;;;;;;12.50;2.78;;;24.20;57.30;;;;;;6321059;28;20059;-73
2021/10/05 10:23:39;;;;;;;5.80;2.85;;;24.20;57.50;;;;;;6306498;28;20021;-73
2021/10/05 10:26:48;;;;;;;7.43;2.65;;;24.10;57.60;;;;;;6307022;28;20022;-73
2021/10/05 10:29:49;;;;;;;5.05;2.60;;;24.10;57.70;;;;;;6320883;28;20066;-73
2021/10/05 10:32:54;;;;;;;12.77;2.78;;;24.10;57.50;;;;;;6305411;28;20229;-74
2021/10/05 10:35:58;;;;;;;5.68;2.35;;;24.10;57.50;;;;;;6315402;28;20050;-73
2021/10/05 10:39:08;;;;;;;6.20;2.38;;;24.20;57.40;;;;;;6317704;28;20036;-74
2021/10/05 10:42:09;;;;;;;19.42;4.30;;;24.20;57.40;;;;;;6299942;28;20111;-74
2021/10/05 10:45:18;;;;;;;20.38;4.50;;;24.20;57.40;;;;;;6320571;28;20024;-74
2021/10/05 10:48:36;;;;;;;17.13;4.10;;;24.10;57.20;;;;;;6303856;28;20059;-74
2021/10/05 10:51:40;;;;;;;12.07;3.88;;;24.10;57.30;;;;;;6297596;28;20048;-74
2021/10/05 10:54:51;;;;;;;13.05;3.45;;;24.10;57.30;;;;;;6321138;28;20036;-74
2021/10/05 10:57:56;;;;;;;11.32;3.80;;;24.10;57.40;;;;;;6309288;28;20055;-74
2021/10/05 11:00:57;;;;;;;9.50;3.03;;;24.10;57.60;;;;;;6301041;28;20021;-74
2021/10/05 11:04:05;;;;;;;8.05;3.20;;;24.10;57.60;;;;;;6314810;28;20498;-74
2021/10/05 11:07:05;;;;;;;8.27;3.42;;;24.10;57.70;;;;;;6323716;28;20016;-73
2021/10/05 11:10:08;;;;;;;9.95;3.55;;;24.10;57.70;;;;;;6318259;28;20450;-74
2021/10/05 11:13:09;;;;;;;7.57;3.05;;;24.00;57.60;;;;;;6299496;28;20043;-73
2021/10/05 11:16:09;;;;;;;9.70;3.33;;;24.00;57.60;;;;;;6310001;28;20038;-74
2021/10/05 11:19:16;;;;;;;6.25;3.08;;;24.10;57.70;;;;;;6301207;28;20025;-73
2021/10/05 11:22:16;;;;;;;4.53;2.47;;;24.00;57.60;;;;;;6293054;28;20035;-74
2021/10/05 11:25:18;;;;;;;7.75;3.25;;;24.00;57.50;;;;;;6304019;28;20024;-74
2021/10/05 11:28:26;;;;;;;4.97;3.10;;;24.00;57.50;;;;;;6315820;28;20032;-74
2021/10/05 11:31:27;;;;;;;5.32;2.75;;;24.00;57.60;;;;;;6297540;28;20028;-74
2021/10/05 11:34:28;;;;;;;5.28;2.70;;;24.00;57.70;;;;;;6307815;28;20024;-74
2021/10/05 11:37:29;;;;;;;5.72;2.92;;;24.00;57.60;;;;;;6297535;28;20099;-74
2021/10/05 11:40:29;;;;;;;7.95;2.88;;;24.00;57.60;;;;;;6301407;28;20020;-73
2021/10/05 11:43:36;;;;;;;6.25;2.58;;;24.00;57.60;;;;;;6312516;28;20338;-75
2021/10/05 11:46:36;;;;;;;6.55;2.53;;;24.00;57.50;;;;;;6294923;28;20107;-73
2021/10/05 11:49:41;;;;;;;4.38;2.80;;;24.00;57.50;;;;;;6309110;28;20365;-74
2021/10/05 11:52:42;;;;;;;5.30;3.13;;;24.00;57.50;;;;;;6304188;28;20489;-74
2021/10/05 11:56:03;;;;;;;11.18;2.92;;;24.00;57.50;;;;;;6300879;28;20047;-74
2021/10/05 11:59:03;;;;;;;3.78;2.50;;;24.00;57.50;;;;;;6307865;28;20029;-73
2021/10/05 12:02:07;;;;;;;8.82;3.30;;;24.00;57.50;;;;;;6297473;28;20077;-74
2021/10/05 12:05:08;;;;;;;5.63;2.67;;;24.00;57.50;;;;;;6308121;28;20016;-74
2021/10/05 12:08:10;;;;;;;5.35;2.58;;;24.00;57.40;;;;;;6310049;28;20039;-74
2021/10/05 12:11:11;;;;;;;5.55;2.70;;;24.00;57.50;;;;;;6301094;28;20057;-74
2021/10/05 12:14:13;;;;;;;7.82;2.72;;;24.00;57.40;;;;;;6302559;28;20023;-74
2021/10/05 12:17:16;;;;;;;5.45;2.60;;;24.00;57.70;;;;;;6304578;28;20098;-73
2021/10/05 12:20:16;;;;;;;11.05;3.17;;;24.10;57.50;;;;;;6293630;28;20016;-74
2021/10/05 12:23:17;;;;;;;4.65;2.72;;;24.10;57.30;;;;;;6296887;28;20020;-73
2021/10/05 12:26:18;;;;;;;4.93;2.90;;;24.10;57.30;;;;;;6291883;28;20387;-73
2021/10/05 12:29:20;;;;;;;7.63;2.97;;;24.10;57.30;;;;;;6305859;28;20036;-73
2021/10/05 12:32:36;;;;;;;4.80;2.92;;;24.10;57.30;;;;;;6303918;28;20032;-73
2021/10/05 12:35:39;;;;;;;3.70;2.60;;;24.00;57.30;;;;;;6297519;28;20036;-73
2021/10/05 12:38:39;;;;;;;4.72;2.80;;;24.00;57.30;;;;;;6294586;28;20070;-72
2021/10/05 12:41:42;;;;;;;5.30;3.20;;;24.00;57.40;;;;;;6314057;28;20085;-74
2021/10/05 12:44:42;;;;;;;3.38;2.50;;;24.00;57.40;;;;;;6291990;28;20391;-73
2021/10/05 12:47:53;;;;;;;4.28;2.75;;;24.00;57.50;;;;;;6304605;28;20364;-73
2021/10/05 12:50:54;;;;;;;4.18;2.60;;;24.00;57.70;;;;;;6297563;28;20115;-73
2021/10/05 12:54:02;;;;;;;4.93;2.95;;;24.00;57.80;;;;;;6313491;28;20049;-73
2021/10/05 12:57:05;;;;;;;3.25;2.33;;;24.00;57.80;;;;;;6313426;28;20410;-73
2021/10/05 13:00:06;;;;;;;4.10;2.88;;;23.90;57.80;;;;;;6292928;28;20040;-73
2021/10/05 13:03:08;;;;;;;5.80;3.00;;;23.90;57.80;;;;;;6305116;28;20025;-73
2021/10/05 13:06:11;;;;;;;5.78;2.85;;;23.90;57.80;;;;;;6315334;28;20551;-73
2021/10/05 13:09:12;;;;;;;7.07;3.05;;;23.90;57.80;;;;;;6309631;28;20041;-73
2021/10/05 13:12:12;;;;;;;5.50;3.70;;;23.90;57.80;;;;;;6298493;28;20027;-73
2021/10/05 13:15:13;;;;;;;4.22;3.35;;;23.90;58.20;;;;;;6297590;28;20037;-73
2021/10/05 13:18:13;;;;;;;5.40;4.00;;;23.90;57.90;;;;;;6305878;28;20565;-73
2021/10/05 13:21:14;;;;;;;5.90;4.20;;;23.90;57.90;;;;;;6298933;28;20067;-73
2021/10/05 13:24:15;;;;;;;5.68;4.18;;;23.90;57.80;;;;;;6299656;28;20025;-73
2021/10/05 13:27:15;;;;;;;7.78;4.93;;;23.90;57.90;;;;;;6308251;28;20528;-73
2021/10/05 13:30:17;;;;;;;7.28;4.50;;;23.90;57.80;;;;;;6321123;28;20052;-73
2021/10/05 13:33:18;;;;;;;7.28;5.18;;;23.80;57.80;;;;;;6302118;28;20077;-73
2021/10/05 13:36:18;;;;;;;7.07;4.88;;;23.80;57.80;;;;;;6314751;28;20120;-73
2021/10/05 13:39:19;;;;;;;6.75;4.38;;;23.80;57.80;;;;;;6314302;28;20491;-73
2021/10/05 13:42:19;;;;;;;6.28;4.35;;;23.80;57.80;;;;;;6305909;28;20032;-73
2021/10/05 13:45:21;;;;;;;7.00;5.03;;;23.90;57.70;;;;;;6297390;28;20624;-72
2021/10/05 13:48:22;;;;;;;12.85;4.93;;;23.90;57.60;;;;;;6313665;28;20070;-74
2021/10/05 13:51:22;;;;;;;8.43;4.85;;;24.00;57.60;;;;;;6300253;28;20028;-72
2021/10/05 13:54:23;;;;;;;7.88;5.10;;;24.10;57.20;;;;;;6314615;28;20032;-72
2021/10/05 13:57:23;;;;;;;16.23;5.22;;;24.20;56.90;;;;;;6303412;28;20048;-73
2021/10/05 14:00:24;;;;;;;14.73;5.28;;;24.30;56.90;;;;;;6305599;28;20028;-72
2021/10/05 14:03:24;;;;;;;20.65;6.85;;;24.30;56.90;;;;;;6309992;28;20039;-72
2021/10/05 14:06:25;;;;;;;14.23;5.43;;;24.40;56.90;;;;;;6298141;28;20024;-72
2021/10/05 14:09:26;;;;;;;22.42;6.97;;;24.40;57.00;;;;;;6313305;28;20136;-72
2021/10/05 14:12:26;;;;;;;21.75;6.88;;;24.50;56.80;;;;;;6301116;28;20077;-73
2021/10/05 14:15:27;;;;;;;21.90;6.53;;;24.40;56.80;;;;;;6296160;28;20029;-73
2021/10/05 14:18:31;;;;;;;24.13;6.38;;;24.50;57.00;;;;;;6308072;28;20031;-73
2021/10/05 14:21:32;;;;;;;21.57;7.20;;;24.50;57.10;;;;;;6298384;28;20348;-74
2021/10/05 14:24:33;;;;;;;16.10;6.40;;;24.40;57.10;;;;;;6305164;28;20028;-73
2021/10/05 14:27:34;;;;;;;15.48;6.90;;;24.40;57.20;;;;;;6306013;28;20116;-73
2021/10/05 14:30:35;;;;;;;20.42;5.88;;;24.30;57.20;;;;;;6294939;28;20097;-74
2021/10/05 14:33:35;;;;;;;14.48;5.88;;;24.30;57.50;;;;;;6313593;28;20028;-73
2021/10/05 14:36:36;;;;;;;9.55;5.22;;;24.20;57.50;;;;;;6308632;28;20044;-73
2021/10/05 14:39:37;;;;;;;19.83;5.90;;;24.20;57.60;;;;;;6294118;28;20173;-74
2021/10/05 14:42:37;;;;;;;10.82;5.00;;;24.20;57.60;;;;;;6305583;28;20020;-73
2021/10/05 14:45:38;;;;;;;12.85;5.38;;;24.20;57.80;;;;;;6301153;28;20066;-73
2021/10/05 14:48:39;;;;;;;10.18;4.80;;;24.10;57.70;;;;;;6312144;28;20148;-73
2021/10/05 14:51:40;;;;;;;7.82;4.95;;;24.10;57.80;;;;;;6295433;28;20038;-73
2021/10/05 14:54:40;;;;;;;9.77;5.38;;;24.10;57.80;;;;;;6300912;28;20024;-73
2021/10/05 14:57:41;;;;;;;9.30;5.13;;;24.10;57.80;;;;;;6303098;28;20062;-74
2021/10/05 15:00:41;;;;;;;10.23;5.25;;;24.10;57.70;;;;;;6294941;28;20063;-73
2021/10/05 15:03:42;;;;;;;7.43;4.55;;;24.10;57.60;;;;;;6297024;28;20028;-73
2021/10/05 15:06:42;;;;;;;8.13;4.45;;;24.10;57.60;;;;;;6324770;28;20106;-73
2021/10/05 15:09:43;;;;;;;11.27;4.65;;;24.10;57.70;;;;;;6315869;28;20055;-73
2021/10/05 15:12:44;;;;;;;10.07;4.75;;;24.00;57.60;;;;;;6300036;28;20040;-73
2021/10/05 15:15:45;;;;;;;9.48;4.38;;;24.00;57.60;;;;;;6311345;28;20118;-74
2021/10/05 15:18:46;;;;;;;9.85;4.65;;;24.00;57.70;;;;;;6301498;28;20020;-74
2021/10/05 15:21:47;;;;;;;7.78;4.28;;;24.00;57.80;;;;;;6293783;28;20557;-73
2021/10/05 15:24:48;;;;;;;10.10;4.10;;;24.00;57.80;;;;;;6301850;28;20033;-73
2021/10/05 15:27:48;;;;;;;8.05;4.07;;;24.00;57.70;;;;;;6311775;28;20101;-73
2021/10/05 15:30:49;;;;;;;10.00;4.05;;;24.00;57.70;;;;;;6304843;28;20123;-73
2021/10/05 15:33:49;;;;;;;7.00;4.22;;;24.00;57.60;;;;;;6294881;28;20021;-73
2021/10/05 15:36:50;;;;;;;6.57;4.00;;;24.00;57.60;;;;;;6299344;28;20028;-73
2021/10/05 15:39:51;;;;;;;6.28;3.75;;;24.00;57.60;;;;;;6306326;28;20024;-73